createdAt,value
2018-02-27T00:00:57.414Z,75.32
2018-02-27T00:02:02.238Z,75.51
2018-02-27T00:03:07.093Z,75.03
2018-02-27T00:04:13.318Z,74.95
2018-02-27T00:05:18.431Z,75.26
2018-02-27T00:06:23.699Z,75.85
2018-02-27T00:07:28.720Z,75.81
2018-02-27T00:08:34.013Z,76.00
2018-02-27T00:09:38.950Z,76.31
2018-02-27T00:10:43.948Z,76.22
2018-02-27T00:11:49.231Z,75.95
2018-02-27T00:12:54.178Z,75.74
2018-02-27T00:13:59.146Z,76.16
2018-02-27T00:15:07.200Z,76.26
2018-02-27T00:16:12.179Z,76.40
2018-02-27T00:17:17.513Z,76.05
2018-02-27T00:18:22.629Z,75.94
2018-02-27T00:19:27.664Z,76.08
2018-02-27T00:20:32.629Z,76.01
2018-02-27T00:21:37.842Z,76.45
2018-02-27T00:22:43.240Z,76.44
2018-02-27T00:23:48.868Z,76.29
2018-02-27T00:24:53.868Z,76.39
2018-02-27T00:25:58.996Z,77.27
2018-02-27T00:27:04.054Z,76.92
2018-02-27T00:28:09.052Z,77.12
2018-02-27T00:29:13.779Z,76.71
2018-02-27T00:30:19.086Z,76.85
2018-02-27T00:31:23.966Z,76.44
2018-02-27T00:32:28.880Z,76.61
2018-02-27T00:33:33.889Z,76.34
2018-02-27T00:34:38.999Z,76.35
2018-02-27T00:35:44.148Z,76.57
2018-02-27T00:36:49.737Z,77.27
2018-02-27T00:37:55.095Z,77.12
2018-02-27T00:39:01.189Z,77.06
2018-02-27T00:40:06.741Z,77.68
2018-02-27T00:41:11.844Z,77.75
2018-02-27T00:42:17.090Z,78.04
2018-02-27T00:43:22.219Z,77.54
2018-02-27T00:44:27.357Z,77.92
2018-02-27T00:45:32.970Z,78.03
2018-02-27T00:46:38.123Z,78.12
2018-02-27T00:47:43.464Z,78.08
2018-02-27T00:48:48.621Z,78.08
2018-02-27T00:49:53.579Z,78.14
2018-02-27T00:50:58.705Z,78.75
2018-02-27T00:52:03.797Z,78.39
2018-02-27T00:53:08.627Z,78.41
2018-02-27T00:54:14.807Z,78.27
2018-02-27T00:55:19.867Z,78.33
2018-02-27T00:56:25.047Z,78.63
2018-02-27T00:57:30.097Z,78.87
2018-02-27T00:58:35.871Z,79.17
2018-02-27T00:59:40.836Z,78.86
2018-02-27T01:00:46.821Z,78.94
2018-02-27T01:01:53.442Z,78.84
2018-02-27T01:02:58.718Z,78.54
2018-02-27T01:04:03.548Z,78.51
2018-02-27T01:05:08.415Z,78.07
2018-02-27T01:06:14.385Z,78.42
2018-02-27T01:07:20.937Z,78.14
2018-02-27T01:08:25.810Z,78.68
2018-02-27T01:09:31.323Z,78.14
2018-02-27T01:10:36.318Z,78.09
2018-02-27T01:11:42.061Z,78.00
2018-02-27T01:12:48.161Z,78.27
2018-02-27T01:13:55.054Z,78.22
2018-02-27T01:15:00.910Z,78.47
2018-02-27T01:16:06.264Z,78.77
2018-02-27T01:17:11.468Z,78.52
2018-02-27T01:18:16.542Z,79.07
2018-02-27T01:19:22.164Z,78.91
2018-02-27T01:20:27.621Z,78.94
2018-02-27T01:21:32.641Z,79.21
2018-02-27T01:22:37.498Z,79.62
2018-02-27T01:23:42.599Z,79.83
2018-02-27T01:24:47.401Z,79.92
2018-02-27T01:25:52.348Z,79.93
2018-02-27T01:26:57.635Z,80.05
2018-02-27T01:28:02.697Z,79.97
2018-02-27T01:29:07.782Z,80.03
2018-02-27T01:30:15.206Z,80.00
2018-02-27T01:31:19.962Z,80.30
2018-02-27T01:32:25.162Z,80.09
2018-02-27T01:33:30.160Z,80.06
2018-02-27T01:34:36.236Z,79.88
2018-02-27T01:35:41.570Z,80.08
2018-02-27T01:36:46.735Z,80.02
2018-02-27T01:37:51.909Z,80.64
2018-02-27T01:38:57.054Z,80.14
2018-02-27T01:40:02.563Z,79.99
2018-02-27T01:41:07.617Z,80.41
2018-02-27T01:42:12.572Z,80.02
2018-02-27T01:43:17.634Z,80.02
2018-02-27T01:44:22.784Z,80.12
2018-02-27T01:45:29.034Z,79.94
2018-02-27T01:46:34.227Z,79.74
2018-02-27T01:47:39.419Z,80.05
2018-02-27T01:48:44.302Z,80.34
2018-02-27T01:49:49.536Z,80.33
2018-02-27T01:51:03.206Z,80.12
2018-02-27T01:52:08.275Z,79.58
2018-02-27T01:53:14.677Z,79.50
2018-02-27T01:54:19.679Z,79.59
2018-02-27T01:55:24.604Z,79.49
2018-02-27T01:56:29.536Z,79.59
2018-02-27T01:57:34.658Z,79.27
2018-02-27T01:58:39.833Z,79.21
2018-02-27T01:59:44.923Z,78.93
2018-02-27T02:00:50.158Z,78.55
2018-02-27T02:01:55.645Z,78.54
2018-02-27T02:03:00.910Z,78.47
2018-02-27T02:04:05.894Z,78.53
2018-02-27T02:05:11.295Z,78.30
2018-02-27T02:06:16.953Z,78.17
2018-02-27T02:07:22.575Z,78.18
2018-02-27T02:08:27.909Z,78.11
2018-02-27T02:09:33.092Z,77.89
2018-02-27T02:10:38.522Z,77.98
2018-02-27T02:11:44.343Z,77.86
2018-02-27T02:12:49.274Z,78.35
2018-02-27T02:13:54.692Z,78.15
2018-02-27T02:14:59.850Z,78.28
2018-02-27T02:16:05.288Z,78.58
2018-02-27T02:17:10.164Z,78.79
2018-02-27T02:18:15.332Z,79.06
2018-02-27T02:19:20.534Z,78.97
2018-02-27T02:20:27.365Z,78.75
2018-02-27T02:21:32.266Z,78.71
2018-02-27T02:22:37.544Z,78.75
2018-02-27T02:23:43.898Z,78.85
2018-02-27T02:24:49.567Z,78.46
2018-02-27T02:25:54.604Z,78.42
2018-02-27T02:26:59.758Z,78.40
2018-02-27T02:28:04.438Z,78.54
2018-02-27T02:29:09.448Z,78.54
2018-02-27T02:30:16.282Z,78.55
2018-02-27T02:31:20.782Z,78.45
2018-02-27T02:32:25.494Z,78.34
2018-02-27T02:33:30.334Z,78.37
2018-02-27T02:34:35.212Z,78.26
2018-02-27T02:35:40.223Z,78.09
2018-02-27T02:36:45.582Z,78.08
2018-02-27T02:37:51.195Z,78.30
2018-02-27T02:38:56.427Z,78.52
2018-02-27T02:40:01.482Z,78.15
2018-02-27T02:41:06.305Z,78.09
2018-02-27T02:42:20.240Z,78.51
2018-02-27T02:43:25.343Z,78.40
2018-02-27T02:44:30.213Z,78.35
2018-02-27T02:45:35.776Z,78.56
2018-02-27T02:46:40.731Z,79.26
2018-02-27T02:47:45.678Z,79.05
2018-02-27T02:48:50.464Z,79.01
2018-02-27T02:49:55.572Z,79.12
2018-02-27T02:51:00.539Z,79.32
2018-02-27T02:52:05.815Z,79.53
2018-02-27T02:53:10.303Z,79.61
2018-02-27T02:54:15.193Z,79.63
2018-02-27T02:55:20.273Z,80.59
2018-02-27T02:56:25.451Z,80.26
2018-02-27T02:57:31.338Z,80.24
2018-02-27T02:58:36.139Z,80.39
2018-02-27T02:59:41.620Z,80.50
2018-02-27T03:00:46.834Z,80.69
2018-02-27T03:01:52.886Z,80.82
2018-02-27T03:02:58.318Z,80.99
2018-02-27T03:04:03.517Z,81.23
2018-02-27T03:05:07.929Z,81.32
2018-02-27T03:06:12.703Z,81.31
2018-02-27T03:07:17.215Z,81.62
2018-02-27T03:08:21.816Z,81.63
2018-02-27T03:09:26.310Z,81.50
2018-02-27T03:10:31.022Z,81.66
2018-02-27T03:11:35.811Z,81.93
2018-02-27T03:12:40.890Z,81.78
2018-02-27T03:13:46.207Z,81.78
2018-02-27T03:14:50.930Z,81.80
2018-02-27T03:15:55.841Z,81.90
2018-02-27T03:17:00.474Z,81.65
2018-02-27T03:18:05.058Z,81.75
2018-02-27T03:19:09.616Z,81.94
2018-02-27T03:20:14.921Z,82.20
2018-02-27T03:21:19.787Z,82.66
2018-02-27T03:22:24.828Z,83.16
2018-02-27T03:23:29.997Z,83.46
2018-02-27T03:24:35.476Z,83.93
2018-02-27T03:25:40.296Z,83.94
2018-02-27T03:26:45.313Z,84.08
2018-02-27T03:27:49.981Z,84.21
2018-02-27T03:28:54.508Z,84.01
2018-02-27T03:29:59.287Z,83.93
2018-02-27T03:31:04.316Z,83.95
2018-02-27T03:32:09.990Z,83.59
2018-02-27T03:33:14.680Z,83.39
2018-02-27T03:34:19.924Z,82.88
2018-02-27T03:35:24.936Z,82.42
2018-02-27T03:36:30.560Z,81.70
2018-02-27T03:37:35.000Z,81.44
2018-02-27T03:38:39.786Z,81.26
2018-02-27T03:39:44.807Z,81.08
2018-02-27T03:40:49.524Z,81.08
2018-02-27T03:41:54.186Z,80.34
2018-02-27T03:42:59.028Z,79.86
2018-02-27T03:44:03.949Z,79.88
2018-02-27T03:45:08.722Z,79.76
2018-02-27T03:46:13.353Z,79.63
2018-02-27T03:47:18.085Z,79.50
2018-02-27T03:48:22.570Z,79.41
2018-02-27T03:49:27.440Z,79.16
2018-02-27T03:50:32.456Z,79.02
2018-02-27T03:51:36.923Z,79.37
2018-02-27T03:52:41.451Z,79.04
2018-02-27T03:53:46.078Z,78.63
2018-02-27T03:54:50.740Z,78.65
2018-02-27T03:55:55.369Z,79.03
2018-02-27T03:57:00.034Z,79.01
2018-02-27T03:58:04.793Z,79.35
2018-02-27T03:59:09.698Z,78.99
2018-02-27T04:00:16.530Z,79.35
2018-02-27T04:01:22.448Z,79.31
2018-02-27T04:02:27.962Z,79.25
2018-02-27T04:03:33.710Z,79.35
2018-02-27T04:04:38.324Z,79.44
2018-02-27T04:05:43.193Z,79.25
2018-02-27T04:06:47.901Z,79.20
2018-02-27T04:07:52.556Z,79.24
2018-02-27T04:08:57.136Z,79.86
2018-02-27T04:10:01.672Z,80.56
2018-02-27T04:11:06.233Z,80.66
2018-02-27T04:12:11.090Z,80.17
2018-02-27T04:13:15.931Z,80.44
2018-02-27T04:14:20.659Z,80.83
2018-02-27T04:15:25.766Z,80.81
2018-02-27T04:16:31.449Z,80.94
2018-02-27T04:17:36.368Z,81.09
2018-02-27T04:18:41.457Z,81.32
2018-02-27T04:19:46.158Z,81.70
2018-02-27T04:20:51.142Z,81.88
2018-02-27T04:21:55.830Z,81.69
2018-02-27T04:23:00.532Z,81.83
2018-02-27T04:24:05.214Z,82.12
2018-02-27T04:26:10.408Z,82.00
2018-02-27T04:27:15.120Z,82.24
2018-02-27T04:28:19.524Z,82.35
2018-02-27T04:29:24.769Z,82.72
2018-02-27T04:30:29.328Z,83.09
2018-02-27T04:31:35.832Z,83.01
2018-02-27T04:32:40.350Z,83.71
2018-02-27T04:33:45.195Z,83.03
2018-02-27T04:34:50.043Z,82.92
2018-02-27T04:35:55.398Z,82.79
2018-02-27T04:36:59.861Z,82.83
2018-02-27T04:38:04.237Z,82.85
2018-02-27T04:39:08.892Z,82.80
2018-02-27T04:40:13.634Z,82.89
2018-02-27T04:41:18.547Z,83.08
2018-02-27T04:42:22.971Z,84.79
2018-02-27T04:43:27.967Z,83.57
2018-02-27T04:44:33.400Z,83.35
2018-02-27T04:45:39.134Z,83.17
2018-02-27T04:46:45.545Z,83.04
2018-02-27T04:47:50.924Z,83.22
2018-02-27T04:48:55.409Z,83.49
2018-02-27T04:49:59.737Z,83.34
2018-02-27T04:51:04.557Z,83.38
2018-02-27T04:52:09.343Z,83.26
2018-02-27T04:53:14.065Z,83.14
2018-02-27T04:54:18.593Z,83.09
2018-02-27T04:55:24.108Z,83.23
2018-02-27T04:56:28.626Z,83.45
2018-02-27T04:57:33.155Z,83.29
2018-02-27T04:58:38.844Z,83.09
2018-02-27T04:59:45.120Z,83.43
2018-02-27T05:00:49.666Z,83.13
2018-02-27T05:01:54.480Z,83.25
2018-02-27T05:02:59.227Z,83.30
2018-02-27T05:04:03.943Z,83.34
2018-02-27T05:05:09.072Z,83.07
2018-02-27T05:06:14.071Z,83.15
2018-02-27T05:07:18.724Z,83.27
2018-02-27T05:08:23.427Z,83.33
2018-02-27T05:09:27.949Z,82.98
2018-02-27T05:10:32.852Z,83.08
2018-02-27T05:11:37.552Z,82.72
2018-02-27T05:12:42.147Z,82.92
2018-02-27T05:13:47.502Z,83.18
2018-02-27T05:14:52.883Z,83.53
2018-02-27T05:15:57.702Z,83.72
2018-02-27T05:17:03.521Z,84.05
2018-02-27T05:18:08.520Z,84.10
2018-02-27T05:19:13.168Z,83.91
2018-02-27T05:20:18.009Z,83.70
2018-02-27T05:21:22.919Z,83.61
2018-02-27T05:22:27.704Z,84.08
2018-02-27T05:23:33.189Z,83.94
2018-02-27T05:24:37.830Z,83.80
2018-02-27T05:25:43.440Z,83.90
2018-02-27T05:26:49.318Z,84.09
2018-02-27T05:27:55.461Z,84.05
2018-02-27T05:29:00.393Z,84.19
2018-02-27T05:30:07.028Z,83.65
2018-02-27T05:31:12.291Z,83.78
2018-02-27T05:32:17.384Z,84.39
2018-02-27T05:33:22.520Z,84.36
2018-02-27T05:34:27.623Z,84.48
2018-02-27T05:35:32.679Z,84.22
2018-02-27T05:36:37.738Z,83.92
2018-02-27T05:37:42.337Z,83.73
2018-02-27T05:38:47.706Z,83.58
2018-02-27T05:39:52.438Z,83.67
2018-02-27T05:40:57.507Z,84.08
2018-02-27T05:42:02.385Z,84.11
2018-02-27T05:43:07.153Z,83.75
2018-02-27T05:44:12.298Z,83.42
2018-02-27T05:45:17.949Z,83.06
2018-02-27T05:46:23.087Z,83.22
2018-02-27T05:47:28.295Z,83.53
2018-02-27T05:48:33.713Z,84.17
2018-02-27T05:49:38.893Z,84.42
2018-02-27T05:50:43.938Z,84.66
2018-02-27T05:51:48.845Z,84.67
2018-02-27T05:52:53.789Z,85.05
2018-02-27T05:53:59.086Z,84.95
2018-02-27T05:55:04.113Z,84.74
2018-02-27T05:56:09.178Z,84.55
2018-02-27T05:57:14.081Z,84.41
2018-02-27T05:58:19.193Z,84.22
2018-02-27T05:59:24.123Z,84.08
2018-02-27T06:00:30.340Z,83.92
2018-02-27T06:01:35.660Z,83.84
2018-02-27T06:02:40.653Z,83.63
2018-02-27T06:03:46.878Z,83.71
2018-02-27T06:04:51.861Z,83.86
2018-02-27T06:05:56.796Z,83.51
2018-02-27T06:07:02.173Z,83.45
2018-02-27T06:08:07.202Z,83.54
2018-02-27T06:09:12.296Z,83.96
2018-02-27T06:10:17.360Z,83.65
2018-02-27T06:11:22.665Z,83.47
2018-02-27T06:12:27.994Z,83.59
2018-02-27T06:13:33.213Z,83.73
2018-02-27T06:14:38.364Z,83.84
2018-02-27T06:15:44.239Z,83.78
2018-02-27T06:16:49.409Z,83.50
2018-02-27T06:17:54.582Z,83.31
2018-02-27T06:18:59.835Z,83.53
2018-02-27T06:20:04.971Z,83.64
2018-02-27T06:21:10.135Z,83.68
2018-02-27T06:22:14.999Z,83.71
2018-02-27T06:23:19.944Z,83.76
2018-02-27T06:24:25.131Z,83.85
2018-02-27T06:25:30.573Z,83.96
2018-02-27T06:26:35.763Z,83.82
2018-02-27T06:27:40.825Z,83.60
2018-02-27T06:28:46.296Z,83.55
2018-02-27T06:29:51.260Z,83.39
2018-02-27T06:30:57.158Z,83.71
2018-02-27T06:32:02.129Z,83.84
2018-02-27T06:33:07.263Z,83.88
2018-02-27T06:34:12.151Z,83.93
2018-02-27T06:35:19.891Z,84.16
2018-02-27T06:36:24.889Z,84.42
2018-02-27T06:37:30.229Z,84.71
2018-02-27T06:38:35.704Z,84.26
2018-02-27T06:39:41.731Z,84.10
2018-02-27T06:40:46.847Z,84.02
2018-02-27T06:41:51.789Z,84.00
2018-02-27T06:42:56.755Z,83.93
2018-02-27T06:44:01.598Z,83.88
2018-02-27T06:45:08.843Z,84.44
2018-02-27T06:46:13.783Z,84.90
2018-02-27T06:47:18.800Z,85.16
2018-02-27T06:48:23.843Z,85.33
2018-02-27T06:49:28.722Z,85.64
2018-02-27T06:50:33.968Z,85.05
2018-02-27T06:51:39.171Z,85.09
2018-02-27T06:52:44.304Z,85.54
2018-02-27T06:53:49.243Z,85.75
2018-02-27T06:54:54.136Z,84.84
2018-02-27T06:55:59.284Z,84.30
2018-02-27T06:57:04.537Z,84.15
2018-02-27T06:58:09.412Z,83.14
2018-02-27T06:59:14.423Z,83.31
2018-02-27T07:00:21.028Z,83.86
2018-02-27T07:01:25.947Z,83.43
2018-02-27T07:02:31.186Z,82.86
2018-02-27T07:03:36.806Z,83.11
2018-02-27T07:04:41.819Z,81.22
2018-02-27T07:05:46.815Z,81.42
2018-02-27T07:06:51.731Z,79.55
2018-02-27T07:07:56.660Z,79.65
2018-02-27T07:09:01.643Z,79.00
2018-02-27T07:10:06.341Z,78.61
2018-02-27T07:11:11.320Z,78.52
2018-02-27T07:12:16.317Z,78.04
2018-02-27T07:13:21.935Z,77.78
2018-02-27T07:14:27.120Z,77.57
2018-02-27T07:15:32.624Z,76.75
2018-02-27T07:16:38.208Z,76.73
2018-02-27T07:17:43.265Z,77.10
2018-02-27T07:18:48.229Z,76.97
2018-02-27T07:19:53.099Z,76.11
2018-02-27T07:20:58.095Z,75.60
2018-02-27T07:22:03.665Z,74.94
2018-02-27T07:23:08.734Z,74.77
2018-02-27T07:24:13.684Z,74.04
2018-02-27T07:25:18.558Z,74.39
2018-02-27T07:26:23.325Z,75.01
2018-02-27T07:27:28.415Z,75.06
2018-02-27T07:28:34.081Z,74.64
2018-02-27T07:29:39.413Z,74.39
2018-02-27T07:30:44.364Z,74.08
2018-02-27T07:31:49.225Z,73.58
2018-02-27T07:32:54.151Z,73.79
2018-02-27T07:33:58.904Z,73.34
2018-02-27T07:35:04.135Z,72.71
2018-02-27T07:36:09.138Z,71.95
2018-02-27T07:37:14.005Z,71.11
2018-02-27T07:38:18.963Z,70.72
2018-02-27T07:39:23.909Z,69.06
2018-02-27T07:40:28.871Z,65.69
2018-02-27T07:41:35.257Z,66.69
2018-02-27T07:42:40.291Z,67.59
2018-02-27T07:43:45.377Z,67.77
2018-02-27T07:44:50.892Z,67.68
2018-02-27T07:45:57.390Z,67.15
2018-02-27T07:47:02.231Z,66.53
2018-02-27T07:48:07.552Z,66.54
2018-02-27T07:49:12.565Z,65.49
2018-02-27T07:50:17.471Z,66.40
2018-02-27T07:51:22.322Z,67.62
2018-02-27T07:52:27.141Z,67.78
2018-02-27T07:53:32.892Z,67.25
2018-02-27T07:54:37.881Z,66.95
2018-02-27T07:55:42.653Z,66.80
2018-02-27T07:56:48.587Z,66.26
2018-02-27T07:57:53.616Z,65.16
2018-02-27T07:58:58.557Z,64.25
2018-02-27T08:00:05.910Z,64.11
2018-02-27T08:01:11.093Z,65.30
2018-02-27T08:02:15.881Z,65.92
2018-02-27T08:03:20.708Z,65.62
2018-02-27T08:04:25.562Z,65.08
2018-02-27T08:05:30.441Z,66.14
2018-02-27T08:06:35.828Z,66.43
2018-02-27T08:07:41.085Z,67.45
2018-02-27T08:08:46.048Z,67.30
2018-02-27T08:09:51.886Z,67.50
2018-02-27T08:10:57.465Z,68.09
2018-02-27T08:12:02.454Z,69.04
2018-02-27T08:13:07.204Z,69.22
2018-02-27T08:14:12.046Z,69.33
2018-02-27T08:15:17.422Z,70.44
2018-02-27T08:16:22.264Z,70.81
2018-02-27T08:17:27.066Z,71.09
2018-02-27T08:18:32.113Z,70.36
2018-02-27T08:19:37.191Z,70.44
2018-02-27T08:20:42.085Z,70.66
2018-02-27T08:21:47.868Z,71.51
2018-02-27T08:22:53.154Z,71.67
2018-02-27T08:23:57.888Z,72.11
2018-02-27T08:25:02.965Z,72.41
2018-02-27T08:26:07.898Z,72.31
2018-02-27T08:27:12.731Z,72.01
2018-02-27T08:28:17.908Z,71.32
2018-02-27T08:29:23.244Z,71.15
2018-02-27T08:30:28.562Z,70.39
2018-02-27T08:31:33.791Z,69.81
2018-02-27T08:32:38.755Z,70.44
2018-02-27T08:33:44.508Z,70.58
2018-02-27T08:34:49.847Z,70.31
2018-02-27T08:35:55.184Z,70.49
2018-02-27T08:37:00.002Z,70.68
2018-02-27T08:38:04.707Z,70.47
2018-02-27T08:39:09.547Z,70.42
2018-02-27T08:40:14.558Z,70.18
2018-02-27T08:41:19.322Z,69.69
2018-02-27T08:42:24.468Z,69.86
2018-02-27T08:43:29.354Z,70.50
2018-02-27T08:44:34.407Z,69.96
2018-02-27T08:45:39.824Z,70.01
2018-02-27T08:46:45.384Z,69.49
2018-02-27T08:47:50.491Z,70.64
2018-02-27T08:48:55.330Z,71.32
2018-02-27T08:50:00.237Z,73.25
2018-02-27T08:51:05.091Z,70.74
2018-02-27T08:52:10.000Z,71.10
2018-02-27T08:54:21.796Z,69.30
2018-02-27T08:55:27.253Z,73.04
2018-02-27T08:56:32.198Z,73.06
2018-02-27T08:57:37.092Z,72.66
2018-02-27T08:58:41.871Z,72.23
2018-02-27T08:59:46.918Z,70.36
2018-02-27T09:00:52.529Z,69.16
2018-02-27T09:01:57.591Z,67.98
2018-02-27T09:03:02.547Z,68.37
2018-02-27T09:04:07.302Z,67.42
2018-02-27T09:05:12.191Z,68.45
2018-02-27T09:06:17.127Z,67.28
2018-02-27T09:07:21.907Z,70.49
2018-02-27T09:08:26.745Z,69.71
2018-02-27T09:09:31.871Z,70.53
2018-02-27T09:10:36.872Z,69.05
2018-02-27T09:11:41.724Z,63.99
2018-02-27T09:12:46.890Z,63.91
2018-02-27T09:13:52.326Z,63.23
2018-02-27T09:14:57.908Z,63.67
2018-02-27T09:16:02.950Z,62.72
2018-02-27T09:17:07.958Z,60.65
2018-02-27T09:18:12.942Z,61.11
2018-02-27T09:19:17.768Z,63.05
2018-02-27T09:20:22.824Z,61.10
2018-02-27T09:21:27.742Z,62.35
2018-02-27T09:22:32.736Z,61.43
2018-02-27T09:23:37.972Z,62.07
2018-02-27T09:24:42.722Z,61.83
2018-02-27T09:25:48.085Z,62.03
2018-02-27T09:26:52.900Z,64.21
2018-02-27T09:27:57.996Z,63.20
2018-02-27T09:29:02.895Z,65.23
2018-02-27T09:30:09.678Z,62.43
2018-02-27T09:31:15.053Z,62.79
2018-02-27T09:32:19.747Z,63.96
2018-02-27T09:33:24.541Z,59.58
2018-02-27T09:34:29.304Z,65.77
2018-02-27T09:35:34.173Z,65.30
2018-02-27T09:36:39.459Z,64.11
2018-02-27T09:37:44.188Z,63.91
2018-02-27T09:38:50.118Z,60.82
2018-02-27T09:39:54.655Z,64.25
2018-02-27T09:40:59.188Z,63.73
2018-02-27T09:42:04.015Z,63.19
2018-02-27T09:43:08.878Z,63.04
2018-02-27T09:44:13.703Z,64.34
2018-02-27T09:45:18.859Z,61.93
2018-02-27T09:46:23.765Z,63.14
2018-02-27T09:47:28.550Z,66.80
2018-02-27T09:48:33.491Z,63.65
2018-02-27T09:49:38.731Z,64.47
2018-02-27T09:50:43.862Z,66.44
2018-02-27T09:51:48.630Z,64.21
2018-02-27T09:52:53.411Z,65.18
2018-02-27T09:53:58.318Z,61.00
2018-02-27T09:55:03.280Z,63.47
2018-02-27T09:56:08.041Z,63.15
2018-02-27T09:57:12.851Z,63.95
2018-02-27T09:58:17.667Z,63.61
2018-02-27T09:59:22.486Z,65.91
2018-02-27T10:00:27.973Z,67.75
2018-02-27T10:01:33.001Z,64.59
2018-02-27T10:02:37.770Z,64.93
2018-02-27T10:03:42.611Z,66.47
2018-02-27T10:04:48.757Z,63.29
2018-02-27T10:05:53.966Z,66.51
2018-02-27T10:06:58.687Z,67.51
2018-02-27T10:08:03.741Z,65.99
2018-02-27T10:09:08.539Z,62.54
2018-02-27T10:10:13.280Z,64.95
2018-02-27T10:11:18.179Z,66.08
2018-02-27T10:12:22.837Z,61.38
2018-02-27T10:13:27.734Z,64.75
2018-02-27T10:14:32.353Z,64.46
2018-02-27T10:15:38.390Z,65.93
2018-02-27T10:16:43.274Z,70.17
2018-02-27T10:17:48.179Z,66.53
2018-02-27T10:18:52.999Z,62.72
2018-02-27T10:19:57.584Z,61.72
2018-02-27T10:21:03.622Z,60.09
2018-02-27T10:22:08.381Z,62.20
2018-02-27T10:23:13.090Z,61.15
2018-02-27T10:24:17.817Z,63.19
2018-02-27T10:25:22.589Z,65.88
2018-02-27T10:26:27.427Z,66.37
2018-02-27T10:27:32.534Z,64.63
2018-02-27T10:28:37.567Z,59.58
2018-02-27T10:29:42.279Z,63.49
2018-02-27T10:30:47.333Z,59.70
2018-02-27T10:31:52.101Z,64.25
2018-02-27T10:32:56.839Z,61.65
2018-02-27T10:34:01.628Z,62.78
2018-02-27T10:35:06.449Z,62.89
2018-02-27T10:36:11.191Z,63.31
2018-02-27T10:37:15.882Z,62.94
2018-02-27T10:38:20.794Z,64.15
2018-02-27T10:39:25.759Z,64.75
2018-02-27T10:40:30.450Z,58.41
2018-02-27T10:41:36.445Z,61.17
2018-02-27T10:42:41.263Z,58.44
2018-02-27T10:43:46.778Z,59.31
2018-02-27T10:44:52.024Z,62.26
2018-02-27T10:45:57.781Z,58.26
2018-02-27T10:47:02.683Z,55.29
2018-02-27T10:48:07.451Z,54.52
2018-02-27T10:49:12.207Z,53.42
2018-02-27T10:50:17.029Z,58.26
2018-02-27T10:51:21.792Z,52.85
2018-02-27T10:52:26.934Z,56.34
2018-02-27T10:53:31.759Z,55.19
2018-02-27T10:54:37.003Z,56.10
2018-02-27T10:55:41.991Z,55.19
2018-02-27T10:56:46.760Z,53.31
2018-02-27T10:57:51.590Z,52.94
2018-02-27T10:58:56.556Z,56.51
2018-02-27T11:00:01.368Z,57.25
2018-02-27T11:01:10.993Z,63.55
2018-02-27T11:02:16.137Z,62.48
2018-02-27T11:03:21.180Z,64.34
2018-02-27T11:04:26.446Z,58.27
2018-02-27T11:05:31.259Z,56.31
2018-02-27T11:06:36.460Z,54.51
2018-02-27T11:07:41.270Z,52.79
2018-02-27T11:08:46.512Z,51.06
2018-02-27T11:09:51.566Z,50.38
2018-02-27T11:10:56.671Z,47.84
2018-02-27T11:12:01.953Z,49.08
2018-02-27T11:13:06.707Z,47.76
2018-02-27T11:14:11.471Z,48.77
2018-02-27T11:15:18.034Z,47.95
2018-02-27T11:16:22.792Z,49.33
2018-02-27T11:17:27.809Z,49.61
2018-02-27T11:18:32.596Z,48.70
2018-02-27T11:19:37.729Z,47.82
2018-02-27T11:20:42.562Z,45.11
2018-02-27T11:21:47.951Z,45.11
2018-02-27T11:22:52.721Z,43.36
2018-02-27T11:23:57.685Z,43.47
2018-02-27T11:25:02.667Z,43.15
2018-02-27T11:26:07.381Z,42.60
2018-02-27T11:27:12.131Z,42.91
2018-02-27T11:28:16.756Z,42.41
2018-02-27T11:29:21.380Z,42.02
2018-02-27T11:30:26.377Z,40.33
2018-02-27T11:31:30.970Z,40.87
2018-02-27T11:32:36.269Z,38.01
2018-02-27T11:33:41.872Z,39.42
2018-02-27T11:34:46.614Z,39.06
2018-02-27T11:35:51.457Z,37.21
2018-02-27T11:36:56.449Z,35.69
2018-02-27T11:38:01.301Z,36.33
2018-02-27T11:39:06.512Z,35.02
2018-02-27T11:40:11.102Z,37.73
2018-02-27T11:41:15.874Z,38.78
2018-02-27T11:42:21.112Z,41.09
2018-02-27T11:43:26.167Z,42.81
2018-02-27T11:44:30.839Z,44.15
2018-02-27T11:45:36.414Z,44.54
2018-02-27T11:46:41.456Z,47.26
2018-02-27T11:47:46.189Z,46.94
2018-02-27T11:48:50.811Z,50.83
2018-02-27T11:49:55.764Z,49.67
2018-02-27T11:51:01.159Z,52.09
2018-02-27T11:52:05.826Z,53.69
2018-02-27T11:53:10.558Z,51.76
2018-02-27T11:54:15.392Z,54.72
2018-02-27T11:55:20.153Z,55.81
2018-02-27T11:56:24.910Z,54.17
2018-02-27T11:57:29.706Z,55.03
2018-02-27T11:58:34.424Z,56.26
2018-02-27T11:59:39.481Z,56.39
2018-02-27T12:00:44.479Z,53.36
2018-02-27T12:01:49.560Z,58.29
2018-02-27T12:02:54.251Z,59.95
2018-02-27T12:03:59.007Z,54.88
2018-02-27T12:05:05.001Z,53.21
2018-02-27T12:06:09.669Z,54.18
2018-02-27T12:08:43.945Z,53.42
2018-02-27T12:09:48.686Z,53.97
2018-02-27T12:10:53.983Z,53.13
2018-02-27T12:11:58.747Z,53.30
2018-02-27T12:13:03.724Z,56.81
2018-02-27T12:14:08.481Z,58.90
2018-02-27T12:15:16.115Z,57.91
2018-02-27T12:16:20.844Z,57.45
2018-02-27T12:17:25.688Z,56.23
2018-02-27T12:18:30.394Z,57.94
2018-02-27T12:19:35.120Z,56.34
2018-02-27T12:20:40.769Z,54.45
2018-02-27T12:21:45.823Z,59.24
2018-02-27T12:22:50.616Z,58.29
2018-02-27T12:23:55.492Z,57.83
2018-02-27T12:25:00.297Z,56.15
2018-02-27T12:26:05.683Z,55.54
2018-02-27T12:27:10.765Z,54.84
2018-02-27T12:28:15.562Z,55.21
2018-02-27T12:29:20.318Z,54.14
2018-02-27T12:30:25.863Z,54.86
2018-02-27T12:31:30.569Z,53.64
2018-02-27T12:32:35.317Z,54.05
2018-02-27T12:33:40.837Z,55.59
2018-02-27T12:34:45.946Z,55.07
2018-02-27T12:35:51.675Z,58.26
2018-02-27T12:36:57.004Z,58.72
2018-02-27T12:38:01.792Z,59.30
2018-02-27T12:39:07.470Z,54.40
2018-02-27T12:40:12.688Z,53.66
2018-02-27T12:41:17.552Z,57.43
2018-02-27T12:42:22.263Z,59.22
2018-02-27T12:43:26.908Z,57.31
2018-02-27T12:44:31.665Z,56.39
2018-02-27T12:45:36.783Z,54.55
2018-02-27T12:46:42.244Z,57.16
2018-02-27T12:47:47.057Z,58.37
2018-02-27T12:48:52.205Z,54.44
2018-02-27T12:49:58.609Z,52.47
2018-02-27T12:51:04.415Z,51.79
2018-02-27T12:52:09.414Z,51.04
2018-02-27T12:53:14.142Z,50.48
2018-02-27T12:54:19.000Z,50.29
2018-02-27T12:55:23.757Z,48.97
2018-02-27T12:56:28.617Z,48.98
2018-02-27T12:57:33.307Z,50.17
2018-02-27T12:58:38.573Z,51.64
2018-02-27T12:59:43.759Z,55.56
2018-02-27T13:00:49.478Z,58.98
2018-02-27T13:01:55.364Z,60.07
2018-02-27T13:03:00.179Z,62.50
2018-02-27T13:04:04.923Z,61.99
2018-02-27T13:05:09.665Z,62.82
2018-02-27T13:06:14.428Z,63.39
2018-02-27T13:07:19.228Z,67.38
2018-02-27T13:08:24.092Z,65.59
2018-02-27T13:09:28.784Z,68.96
2018-02-27T13:10:33.778Z,67.71
2018-02-27T13:11:38.610Z,64.84
2018-02-27T13:12:43.674Z,64.22
2018-02-27T13:13:48.632Z,66.20
2018-02-27T13:14:53.416Z,63.84
2018-02-27T13:15:58.854Z,63.27
2018-02-27T13:17:04.382Z,62.25
2018-02-27T13:18:10.008Z,63.28
2018-02-27T13:19:14.668Z,63.78
2018-02-27T13:20:19.323Z,64.09
2018-02-27T13:21:24.033Z,63.58
2018-02-27T13:22:29.144Z,63.90
2018-02-27T13:23:33.977Z,63.88
2018-02-27T13:24:38.745Z,67.01
2018-02-27T13:25:43.761Z,66.87
2018-02-27T13:26:49.227Z,67.34
2018-02-27T13:27:54.107Z,66.69
2018-02-27T13:28:59.622Z,67.67
2018-02-27T13:30:05.681Z,65.98
2018-02-27T13:31:11.149Z,66.15
2018-02-27T13:32:16.534Z,63.00
2018-02-27T13:33:21.283Z,62.51
2018-02-27T13:34:25.956Z,59.01
2018-02-27T13:35:30.953Z,58.20
2018-02-27T13:36:35.782Z,57.45
2018-02-27T13:37:40.707Z,57.05
2018-02-27T13:39:49.225Z,54.96
2018-02-27T13:40:54.035Z,54.74
2018-02-27T13:42:00.552Z,52.11
2018-02-27T13:43:05.351Z,51.05
2018-02-27T13:44:10.171Z,48.87
2018-02-27T13:45:16.977Z,48.71
2018-02-27T13:46:21.813Z,47.57
2018-02-27T13:47:26.624Z,48.56
2018-02-27T13:48:31.734Z,46.11
2018-02-27T13:49:36.607Z,45.29
2018-02-27T13:50:42.296Z,44.98
2018-02-27T13:51:47.218Z,40.16
2018-02-27T13:52:52.184Z,43.58
2018-02-27T13:53:57.278Z,42.15
2018-02-27T13:55:02.645Z,40.18
2018-02-27T13:56:07.464Z,38.49
2018-02-27T14:00:25.958Z,36.24
2018-02-27T14:01:31.269Z,38.96
2018-02-27T14:02:37.339Z,39.90
2018-02-27T14:03:43.287Z,39.67
2018-02-27T14:04:49.715Z,40.40
2018-02-27T14:05:55.769Z,41.43
2018-02-27T14:07:02.043Z,46.45